createdAt,value
2022-09-02T00:00:46.264Z,1011.94
2022-09-02T00:01:46.331Z,1011.90
2022-09-02T00:02:46.251Z,1011.96
2022-09-02T00:03:46.150Z,1011.94
2022-09-02T00:04:46.112Z,1011.92
2022-09-02T00:05:46.078Z,1011.92
2022-09-02T00:06:46.052Z,1011.93
2022-09-02T00:07:46.005Z,1011.90
2022-09-02T00:08:45.966Z,1011.86
2022-09-02T00:09:45.930Z,1011.88
2022-09-02T00:10:45.891Z,1011.87
2022-09-02T00:11:45.851Z,1011.84
2022-09-02T00:12:45.832Z,1011.87
2022-09-02T00:13:45.779Z,1011.84
2022-09-02T00:14:45.743Z,1011.89
2022-09-02T00:15:45.714Z,1011.89
2022-09-02T00:16:45.707Z,1011.86
2022-09-02T00:17:45.633Z,1011.84
2022-09-02T00:18:45.968Z,1011.87
2022-09-02T00:19:45.554Z,1011.82
2022-09-02T00:20:45.519Z,1011.83
2022-09-02T00:21:45.481Z,1011.79
2022-09-02T00:22:45.444Z,1011.80
2022-09-02T00:23:45.408Z,1011.78
2022-09-02T00:24:45.378Z,1011.78
2022-09-02T00:25:45.332Z,1011.78
2022-09-02T00:26:45.295Z,1011.76
2022-09-02T00:27:45.258Z,1011.83
2022-09-02T00:28:49.229Z,1011.78
2022-09-02T00:29:45.207Z,1011.74
2022-09-02T00:30:45.147Z,1011.75
2022-09-02T00:31:45.188Z,1011.76
2022-09-02T00:32:45.072Z,1011.72
2022-09-02T00:33:45.034Z,1011.75
2022-09-02T00:34:44.998Z,1011.77
2022-09-02T00:35:44.974Z,1011.70
2022-09-02T00:36:44.923Z,1011.70
2022-09-02T00:37:44.888Z,1011.73
2022-09-02T00:38:44.852Z,1011.71
2022-09-02T00:39:44.813Z,1011.68
2022-09-02T00:40:44.863Z,1011.75
2022-09-02T00:41:44.737Z,1011.72
2022-09-02T00:42:44.700Z,1011.68
2022-09-02T00:43:44.661Z,1011.66
2022-09-02T00:44:44.627Z,1011.70
2022-09-02T00:45:44.610Z,1011.64
2022-09-02T00:46:44.565Z,1011.71
2022-09-02T00:47:44.516Z,1011.69
2022-09-02T00:48:44.477Z,1011.70
2022-09-02T00:49:44.449Z,1011.68
2022-09-02T00:50:44.405Z,1011.71
2022-09-02T00:51:44.365Z,1011.68
2022-09-02T00:52:44.329Z,1011.69
2022-09-02T00:53:44.291Z,1011.61
2022-09-02T00:54:44.279Z,1011.63
2022-09-02T00:55:44.216Z,1011.62
2022-09-02T00:56:44.181Z,1011.67
2022-09-02T00:57:44.144Z,1011.58
2022-09-02T00:58:44.109Z,1011.65
2022-09-02T00:59:44.067Z,1011.61
2022-09-02T01:00:44.135Z,1011.67
2022-09-02T01:01:44.122Z,1011.61
2022-09-02T01:02:43.961Z,1011.61
2022-09-02T01:03:43.928Z,1011.65
2022-09-02T01:04:43.886Z,1011.65
2022-09-02T01:05:43.992Z,1011.60
2022-09-02T01:06:43.823Z,1011.62
2022-09-02T01:07:43.770Z,1011.62
2022-09-02T01:08:43.734Z,1011.61
2022-09-02T01:09:43.699Z,1011.60
2022-09-02T01:10:43.661Z,1011.59
2022-09-02T01:11:43.619Z,1011.62
2022-09-02T01:12:43.596Z,1011.60
2022-09-02T01:13:43.557Z,1011.61
2022-09-02T01:14:43.525Z,1011.57
2022-09-02T01:15:43.472Z,1011.58
2022-09-02T01:16:43.547Z,1011.60
2022-09-02T01:17:43.410Z,1011.62
2022-09-02T01:18:43.362Z,1011.61
2022-09-02T01:19:43.324Z,1011.61
2022-09-02T01:20:43.291Z,1011.62
2022-09-02T01:21:43.285Z,1011.60
2022-09-02T01:22:43.213Z,1011.60
2022-09-02T01:23:43.176Z,1011.62
2022-09-02T01:24:43.140Z,1011.57
2022-09-02T01:25:43.101Z,1011.58
2022-09-02T01:26:43.065Z,1011.62
2022-09-02T01:27:43.035Z,1011.62
2022-09-02T01:28:42.990Z,1011.62
2022-09-02T01:29:42.952Z,1011.59
2022-09-02T01:30:42.918Z,1011.58
2022-09-02T01:31:42.970Z,1011.61
2022-09-02T01:32:42.841Z,1011.61
2022-09-02T01:33:42.815Z,1011.60
2022-09-02T01:34:42.778Z,1011.61
2022-09-02T01:35:42.729Z,1011.59
2022-09-02T01:36:42.698Z,1011.54
2022-09-02T01:37:42.655Z,1011.55
2022-09-02T01:38:42.621Z,1011.61
2022-09-02T01:39:42.590Z,1011.54
2022-09-02T01:40:42.681Z,1011.57
2022-09-02T01:41:42.505Z,1011.50
2022-09-02T01:42:42.474Z,1011.53
2022-09-02T01:43:42.430Z,1011.54
2022-09-02T01:44:42.395Z,1011.52
2022-09-02T01:45:42.373Z,1011.50
2022-09-02T01:46:42.379Z,1011.47
2022-09-02T01:47:42.283Z,1011.43
2022-09-02T01:48:42.245Z,1011.39
2022-09-02T01:49:42.207Z,1011.43
2022-09-02T01:50:46.844Z,1011.43
2022-09-02T01:51:42.147Z,1011.44
2022-09-02T01:52:42.096Z,1011.40
2022-09-02T01:53:42.069Z,1011.41
2022-09-02T01:54:42.023Z,1011.38
2022-09-02T01:55:41.983Z,1011.43
2022-09-02T01:56:41.949Z,1011.39
2022-09-02T01:57:41.910Z,1011.41
2022-09-02T01:58:41.875Z,1011.40
2022-09-02T01:59:41.849Z,1011.39
2022-09-02T02:00:41.854Z,1011.40
2022-09-02T02:01:41.818Z,1011.40
2022-09-02T02:02:43.347Z,1011.40
2022-09-02T02:03:41.688Z,1011.42
2022-09-02T02:04:41.651Z,1011.38
2022-09-02T02:05:41.619Z,1011.40
2022-09-02T02:06:41.589Z,1011.39
2022-09-02T02:07:41.537Z,1011.39
2022-09-02T02:08:41.502Z,1011.46
2022-09-02T02:09:41.464Z,1011.41
2022-09-02T02:10:41.429Z,1011.39
2022-09-02T02:11:41.389Z,1011.40
2022-09-02T02:12:41.366Z,1011.39
2022-09-02T02:13:41.318Z,1011.38
2022-09-02T02:14:41.280Z,1011.38
2022-09-02T02:15:41.252Z,1011.38
2022-09-02T02:16:41.315Z,1011.35
2022-09-02T02:17:41.171Z,1011.38
2022-09-02T02:18:41.143Z,1011.35
2022-09-02T02:19:41.089Z,1011.40
2022-09-02T02:20:44.740Z,1011.40
2022-09-02T02:21:41.024Z,1011.40
2022-09-02T02:22:40.983Z,1011.40
2022-09-02T02:23:40.940Z,1011.39
2022-09-02T02:24:40.927Z,1011.40
2022-09-02T02:25:40.868Z,1011.36
2022-09-02T02:26:40.831Z,1011.36
2022-09-02T02:27:40.790Z,1011.41
2022-09-02T02:28:40.753Z,1011.36
2022-09-02T02:29:40.717Z,1011.35
2022-09-02T02:30:40.698Z,1011.38
2022-09-02T02:31:40.666Z,1011.36
2022-09-02T02:32:40.608Z,1011.35
2022-09-02T02:33:40.569Z,1011.35
2022-09-02T02:34:40.532Z,1011.36
2022-09-02T02:35:40.516Z,1011.33
2022-09-02T02:36:40.457Z,1011.38
2022-09-02T02:37:40.419Z,1011.37
2022-09-02T02:38:40.382Z,1011.37
2022-09-02T02:39:40.343Z,1011.35
2022-09-02T02:40:40.354Z,1011.34
2022-09-02T02:41:40.282Z,1011.38
2022-09-02T02:42:40.232Z,1011.38
2022-09-02T02:43:40.194Z,1011.35
2022-09-02T02:44:40.157Z,1011.38
2022-09-02T02:45:40.119Z,1011.35
2022-09-02T02:46:40.135Z,1011.39
2022-09-02T02:47:40.056Z,1011.38
2022-09-02T02:48:40.011Z,1011.38
2022-09-02T02:49:39.970Z,1011.39
2022-09-02T02:50:39.934Z,1011.41
2022-09-02T02:51:39.897Z,1011.39
2022-09-02T02:52:39.861Z,1011.42
2022-09-02T02:53:39.837Z,1011.40
2022-09-02T02:54:39.785Z,1011.38
2022-09-02T02:55:39.746Z,1011.36
2022-09-02T02:56:39.733Z,1011.36
2022-09-02T02:57:39.675Z,1011.38
2022-09-02T02:58:39.636Z,1011.33
2022-09-02T02:59:39.607Z,1011.33
2022-09-02T03:00:39.562Z,1011.30
2022-09-02T03:01:39.614Z,1011.30
2022-09-02T03:02:39.630Z,1011.27
2022-09-02T03:03:39.445Z,1011.29
2022-09-02T03:04:39.429Z,1011.26
2022-09-02T03:05:39.386Z,1011.28
2022-09-02T03:06:39.337Z,1011.25
2022-09-02T03:07:39.296Z,1011.27
2022-09-02T03:08:39.271Z,1011.26
2022-09-02T03:09:39.226Z,1011.28
2022-09-02T03:10:39.183Z,1011.26
2022-09-02T03:11:39.146Z,1011.30
2022-09-02T03:12:39.109Z,1011.28
2022-09-02T03:13:39.072Z,1011.31
2022-09-02T03:14:39.046Z,1011.32
2022-09-02T03:15:39.073Z,1011.31
2022-09-02T03:16:38.958Z,1011.30
2022-09-02T03:17:38.924Z,1011.29
2022-09-02T03:18:38.884Z,1011.30
2022-09-02T03:19:38.848Z,1011.30
2022-09-02T03:20:38.823Z,1011.27
2022-09-02T03:21:39.444Z,1011.24
2022-09-02T03:22:38.733Z,1011.29
2022-09-02T03:23:38.698Z,1011.29
2022-09-02T03:24:38.661Z,1011.27
2022-09-02T03:25:38.635Z,1011.25
2022-09-02T03:26:38.583Z,1011.26
2022-09-02T03:27:38.547Z,1011.22
2022-09-02T03:28:38.509Z,1011.27
2022-09-02T03:29:38.471Z,1011.26
2022-09-02T03:30:38.451Z,1011.27
2022-09-02T03:31:38.456Z,1011.28
2022-09-02T03:32:38.358Z,1011.28
2022-09-02T03:33:38.322Z,1011.28
2022-09-02T03:34:38.282Z,1011.28
2022-09-02T03:35:38.245Z,1011.29
2022-09-02T03:36:38.223Z,1011.28
2022-09-02T03:37:38.172Z,1011.29
2022-09-02T03:38:38.131Z,1011.26
2022-09-02T03:39:38.099Z,1011.28
2022-09-02T03:40:38.110Z,1011.28
2022-09-02T03:41:38.021Z,1011.27
2022-09-02T03:42:38.008Z,1011.25
2022-09-02T03:43:37.947Z,1011.26
2022-09-02T03:44:37.905Z,1011.26
2022-09-02T03:45:37.901Z,1011.26
2022-09-02T03:46:37.830Z,1011.24
2022-09-02T03:47:37.791Z,1011.24
2022-09-02T03:48:37.787Z,1011.23
2022-09-02T03:49:37.718Z,1011.23
2022-09-02T03:50:37.680Z,1011.21
2022-09-02T03:51:37.643Z,1011.23
2022-09-02T03:52:37.604Z,1011.19
2022-09-02T03:53:37.571Z,1011.20
2022-09-02T03:54:37.539Z,1011.21
2022-09-02T03:55:37.493Z,1011.19
2022-09-02T03:56:37.452Z,1011.14
2022-09-02T03:57:37.420Z,1011.13
2022-09-02T03:58:37.390Z,1011.15
2022-09-02T03:59:37.353Z,1011.17
2022-09-02T04:00:37.301Z,1011.14
2022-09-02T04:01:37.291Z,1011.14
2022-09-02T04:02:37.378Z,1011.13
2022-09-02T04:03:37.189Z,1011.15
2022-09-02T04:04:37.150Z,1011.17
2022-09-02T04:05:37.127Z,1011.18
2022-09-02T04:06:37.084Z,1011.15
2022-09-02T04:07:37.041Z,1011.16
2022-09-02T04:08:37.001Z,1011.13
2022-09-02T04:09:36.963Z,1011.16
2022-09-02T04:10:36.925Z,1011.16
2022-09-02T04:11:36.898Z,1011.13
2022-09-02T04:12:36.847Z,1011.13
2022-09-02T04:13:36.830Z,1011.12
2022-09-02T04:14:36.775Z,1011.10
2022-09-02T04:15:36.802Z,1011.11
2022-09-02T04:16:36.770Z,1011.12
2022-09-02T04:17:36.669Z,1011.13
2022-09-02T04:18:36.623Z,1011.11
2022-09-02T04:19:36.583Z,1011.09
2022-09-02T04:20:36.546Z,1011.11
2022-09-02T04:21:36.507Z,1011.14
2022-09-02T04:22:36.468Z,1011.16
2022-09-02T04:23:36.442Z,1011.11
2022-09-02T04:24:36.392Z,1011.12
2022-09-02T04:25:36.355Z,1011.09
2022-09-02T04:26:36.316Z,1011.12
2022-09-02T04:27:36.279Z,1011.07
2022-09-02T04:28:36.256Z,1011.11
2022-09-02T04:29:36.204Z,1011.04
2022-09-02T04:30:36.165Z,1011.06
2022-09-02T04:31:36.162Z,1011.05
2022-09-02T04:32:40.468Z,1011.04
2022-09-02T04:33:36.051Z,1011.03
2022-09-02T04:34:36.023Z,1011.06
2022-09-02T04:35:35.975Z,1011.04
2022-09-02T04:36:35.936Z,1011.06
2022-09-02T04:37:35.899Z,1011.06
2022-09-02T04:38:35.861Z,1011.05
2022-09-02T04:39:35.822Z,1011.02
2022-09-02T04:40:35.867Z,1011.08
2022-09-02T04:41:35.753Z,1011.04
2022-09-02T04:42:35.710Z,1011.05
2022-09-02T04:43:35.672Z,1011.05
2022-09-02T04:44:35.631Z,1011.09
2022-09-02T04:45:35.598Z,1011.06
2022-09-02T04:46:35.595Z,1011.10
2022-09-02T04:47:35.518Z,1011.04
2022-09-02T04:48:35.480Z,1011.11
2022-09-02T04:49:35.441Z,1011.10
2022-09-02T04:50:35.404Z,1011.07
2022-09-02T04:51:35.364Z,1011.05
2022-09-02T04:52:35.340Z,1011.06
2022-09-02T04:53:35.732Z,1011.03
2022-09-02T04:54:35.254Z,1011.08
2022-09-02T04:55:35.211Z,1011.06
2022-09-02T04:56:35.173Z,1011.06
2022-09-02T04:57:35.136Z,1011.09
2022-09-02T04:58:35.108Z,1011.07
2022-09-02T04:59:35.065Z,1011.06
2022-09-02T05:00:35.020Z,1011.05
2022-09-02T05:01:35.028Z,1011.10
2022-09-02T05:02:34.993Z,1011.09
2022-09-02T05:03:34.909Z,1011.11
2022-09-02T05:04:34.882Z,1011.09
2022-09-02T05:05:34.837Z,1011.12
2022-09-02T05:06:34.794Z,1011.14
2022-09-02T05:07:44.009Z,1011.16
2022-09-02T05:08:34.716Z,1011.09
2022-09-02T05:09:34.678Z,1011.09
2022-09-02T05:10:34.655Z,1011.11
2022-09-02T05:11:34.604Z,1011.14
2022-09-02T05:12:34.570Z,1011.13
2022-09-02T05:13:34.528Z,1011.16
2022-09-02T05:14:34.489Z,1011.13
2022-09-02T05:15:34.527Z,1011.15
2022-09-02T05:16:34.415Z,1011.13
2022-09-02T05:17:34.379Z,1011.13
2022-09-02T05:18:34.336Z,1011.17
2022-09-02T05:19:34.368Z,1011.14
2022-09-02T05:20:34.275Z,1011.15
2022-09-02T05:21:34.244Z,1011.14
2022-09-02T05:22:34.188Z,1011.11
2022-09-02T05:23:34.148Z,1011.14
2022-09-02T05:24:34.111Z,1011.13
2022-09-02T05:25:34.073Z,1011.14
2022-09-02T05:26:34.051Z,1011.16
2022-09-02T05:27:34.019Z,1011.13
2022-09-02T05:28:33.958Z,1011.14
2022-09-02T05:29:33.923Z,1011.15
2022-09-02T05:30:33.883Z,1011.14
2022-09-02T05:31:33.894Z,1011.13
2022-09-02T05:32:37.595Z,1011.15
2022-09-02T05:33:33.785Z,1011.13
2022-09-02T05:34:33.735Z,1011.17
2022-09-02T05:35:33.696Z,1011.16
2022-09-02T05:36:33.659Z,1011.15
2022-09-02T05:37:33.632Z,1011.16
2022-09-02T05:38:33.588Z,1011.16
2022-09-02T05:39:33.542Z,1011.17
2022-09-02T05:40:33.530Z,1011.16
2022-09-02T05:41:33.481Z,1011.21
2022-09-02T05:42:33.434Z,1011.13
2022-09-02T05:43:33.407Z,1011.18
2022-09-02T05:44:33.369Z,1011.19
2022-09-02T05:45:33.320Z,1011.16
2022-09-02T05:46:33.329Z,1011.20
2022-09-02T05:47:33.248Z,1011.24
2022-09-02T05:48:33.207Z,1011.25
2022-09-02T05:49:33.184Z,1011.25
2022-09-02T05:50:33.134Z,1011.30
2022-09-02T05:51:33.098Z,1011.31
2022-09-02T05:52:33.058Z,1011.36
2022-09-02T05:53:33.037Z,1011.42
2022-09-02T05:54:33.001Z,1011.35
2022-09-02T05:55:32.949Z,1011.39
2022-09-02T05:56:32.914Z,1011.42
2022-09-02T05:57:32.876Z,1011.45
2022-09-02T05:58:32.839Z,1011.50
2022-09-02T05:59:32.804Z,1011.49
2022-09-02T06:00:32.778Z,1011.48
2022-09-02T06:01:32.792Z,1011.50
2022-09-02T06:02:32.722Z,1011.51
2022-09-02T06:03:32.663Z,1011.56
2022-09-02T06:04:32.624Z,1011.52
2022-09-02T06:05:32.601Z,1011.50
2022-09-02T06:06:32.556Z,1011.53
2022-09-02T06:07:32.524Z,1011.49
2022-09-02T06:08:32.485Z,1011.48
2022-09-02T06:09:32.452Z,1011.51
2022-09-02T06:10:32.416Z,1011.51
2022-09-02T06:11:32.396Z,1011.61
2022-09-02T06:12:32.348Z,1011.58
2022-09-02T06:13:32.317Z,1011.61
2022-09-02T06:14:32.279Z,1011.61
2022-09-02T06:15:32.322Z,1011.47
2022-09-02T06:16:32.210Z,1011.42
2022-09-02T06:17:32.206Z,1011.50
2022-09-02T06:18:32.142Z,1011.54
2022-09-02T06:19:32.110Z,1011.49
2022-09-02T06:20:32.073Z,1011.50
2022-09-02T06:21:32.039Z,1011.54
2022-09-02T06:22:32.006Z,1011.64
2022-09-02T06:23:31.986Z,1011.61
2022-09-02T06:24:31.933Z,1011.64
2022-09-02T06:25:31.906Z,1011.73
2022-09-02T06:26:31.873Z,1011.74
2022-09-02T06:27:31.837Z,1011.73
2022-09-02T06:28:31.800Z,1011.70
2022-09-02T06:29:31.783Z,1011.67
2022-09-02T06:30:31.735Z,1011.67
2022-09-02T06:31:34.423Z,1011.68
2022-09-02T06:32:31.664Z,1011.65
2022-09-02T06:33:31.632Z,1011.45
2022-09-02T06:34:31.598Z,1011.48
2022-09-02T06:35:31.578Z,1011.51
2022-09-02T06:36:31.598Z,1011.46
2022-09-02T06:37:31.498Z,1011.51
2022-09-02T06:38:31.465Z,1011.47
2022-09-02T06:39:31.434Z,1011.47
2022-09-02T06:40:31.418Z,1011.45
2022-09-02T06:41:31.365Z,1011.46
2022-09-02T06:42:31.329Z,1011.59
2022-09-02T06:43:41.334Z,1011.42
2022-09-02T06:44:32.560Z,1011.42
2022-09-02T06:45:31.230Z,1011.43
2022-09-02T06:46:31.272Z,1011.45
2022-09-02T06:47:31.160Z,1011.43
2022-09-02T06:48:31.129Z,1011.42
2022-09-02T06:49:31.100Z,1011.44
2022-09-02T06:50:31.061Z,1011.51
2022-09-02T06:51:31.027Z,1011.43
2022-09-02T06:52:31.015Z,1011.44
2022-09-02T06:53:30.957Z,1011.55
2022-09-02T06:54:30.928Z,1011.77
2022-09-02T06:55:30.891Z,1011.63
2022-09-02T06:56:30.860Z,1011.58
2022-09-02T06:57:33.858Z,1011.48
2022-09-02T06:58:30.829Z,1011.48
2022-09-02T06:59:30.757Z,1011.65
2022-09-02T07:00:31.080Z,1011.57
2022-09-02T07:01:30.746Z,1011.58
2022-09-02T07:02:30.651Z,1011.48
2022-09-02T07:03:30.616Z,1011.43
2022-09-02T07:04:30.582Z,1011.40
2022-09-02T07:05:30.560Z,1011.47
2022-09-02T07:06:30.514Z,1011.48
2022-09-02T07:07:30.479Z,1011.54
2022-09-02T07:08:30.464Z,1011.67
2022-09-02T07:09:30.413Z,1011.54
2022-09-02T07:10:30.386Z,1011.38
2022-09-02T07:11:30.343Z,1011.39
2022-09-02T07:12:30.307Z,1011.49
2022-09-02T07:13:30.276Z,1011.50
2022-09-02T07:14:30.270Z,1011.50
2022-09-02T07:15:30.204Z,1011.50
2022-09-02T07:16:30.218Z,1011.47
2022-09-02T07:17:30.137Z,1011.41
2022-09-02T07:18:30.100Z,1011.72
2022-09-02T07:19:30.067Z,1011.99
2022-09-02T07:20:30.034Z,1011.68
2022-09-02T07:21:29.998Z,1011.75
2022-09-02T07:22:29.976Z,1012.24
2022-09-02T07:23:29.930Z,1011.54
2022-09-02T07:24:29.895Z,1011.80
2022-09-02T07:25:29.893Z,1011.45
2022-09-02T07:26:29.828Z,1011.42
2022-09-02T07:27:29.796Z,1011.43
2022-09-02T07:28:29.787Z,1011.80
2022-09-02T07:29:29.727Z,1011.47
2022-09-02T07:30:29.713Z,1011.49
2022-09-02T07:31:29.659Z,1011.58
2022-09-02T07:32:29.625Z,1011.89
2022-09-02T07:33:29.596Z,1011.44
2022-09-02T07:34:29.572Z,1011.47
2022-09-02T07:35:29.557Z,1011.61
2022-09-02T07:36:29.491Z,1011.94
2022-09-02T07:37:29.454Z,1012.31
2022-09-02T07:38:29.428Z,1012.26
2022-09-02T07:39:29.389Z,1012.26
2022-09-02T07:40:29.426Z,1012.24
2022-09-02T07:41:29.321Z,1012.29
2022-09-02T07:42:29.292Z,1012.30
2022-09-02T07:43:29.258Z,1012.25
2022-09-02T07:44:29.228Z,1012.29
2022-09-02T07:45:29.213Z,1012.31
2022-09-02T07:46:29.212Z,1012.28
2022-09-02T07:47:29.122Z,1012.29
2022-09-02T07:48:29.093Z,1012.28
2022-09-02T07:49:29.075Z,1012.25
2022-09-02T07:50:29.027Z,1012.20
2022-09-02T07:51:30.824Z,1012.25
2022-09-02T07:52:28.962Z,1012.25
2022-09-02T07:53:28.930Z,1012.25
2022-09-02T07:54:28.897Z,1012.26
2022-09-02T07:55:28.861Z,1012.25
2022-09-02T07:56:28.832Z,1011.40
2022-09-02T07:57:28.816Z,1011.36
2022-09-02T07:58:28.767Z,1011.35
2022-09-02T07:59:28.738Z,1011.35
2022-09-02T08:00:28.699Z,1011.29
2022-09-02T08:01:28.765Z,1011.33
2022-09-02T08:02:28.660Z,1011.28
2022-09-02T08:03:28.611Z,1011.27
2022-09-02T08:04:28.569Z,1011.27
2022-09-02T08:05:28.537Z,1011.35
2022-09-02T08:06:34.365Z,1011.28
2022-09-02T08:07:28.472Z,1011.33
2022-09-02T08:08:28.436Z,1011.36
2022-09-02T08:09:28.424Z,1011.37
2022-09-02T08:10:28.373Z,1011.93
2022-09-02T08:11:28.336Z,1012.27
2022-09-02T08:12:28.303Z,1012.01
2022-09-02T08:13:28.392Z,1012.30
2022-09-02T08:14:28.274Z,1012.33
2022-09-02T08:15:28.216Z,1012.24
2022-09-02T08:16:28.232Z,1012.25
2022-09-02T08:17:28.135Z,1012.21
2022-09-02T08:18:28.102Z,1012.24
2022-09-02T08:19:28.068Z,1012.23
2022-09-02T08:20:28.051Z,1012.24
2022-09-02T08:21:28.006Z,1012.20
2022-09-02T08:22:28.009Z,1012.16
2022-09-02T08:23:37.202Z,1012.14
2022-09-02T08:24:27.906Z,1012.11
2022-09-02T08:25:27.870Z,1012.14
2022-09-02T08:26:27.852Z,1012.18
2022-09-02T08:27:27.809Z,1012.13
2022-09-02T08:28:27.789Z,1012.16
2022-09-02T08:29:27.742Z,1012.13
2022-09-02T08:30:27.711Z,1012.14
2022-09-02T08:31:27.731Z,1012.08
2022-09-02T08:32:27.650Z,1012.08
2022-09-02T08:33:27.613Z,1012.07
2022-09-02T08:34:27.602Z,1012.03
2022-09-02T08:35:27.549Z,1011.74
2022-09-02T08:36:27.520Z,1012.10
2022-09-02T08:37:27.495Z,1012.06
2022-09-02T08:38:27.456Z,1012.02
2022-09-02T08:39:27.428Z,1011.56
2022-09-02T08:40:27.442Z,1011.60
2022-09-02T08:41:27.359Z,1011.40
2022-09-02T08:42:27.333Z,1011.83
2022-09-02T08:43:27.298Z,1012.12
2022-09-02T08:44:27.266Z,1012.03
2022-09-02T08:45:27.286Z,1011.36
2022-09-02T08:46:27.237Z,1011.29
2022-09-02T08:47:27.169Z,1011.57
2022-09-02T08:48:27.179Z,1011.82
2022-09-02T08:49:27.106Z,1011.90
2022-09-02T08:50:27.084Z,1012.10
2022-09-02T08:51:27.051Z,1011.42
2022-09-02T08:52:27.010Z,1011.79
2022-09-02T08:53:26.986Z,1011.96
2022-09-02T08:54:26.962Z,1011.63
2022-09-02T08:55:26.915Z,1011.90
2022-09-02T08:56:26.886Z,1011.96
2022-09-02T08:57:26.854Z,1011.74
2022-09-02T08:58:26.823Z,1011.59
2022-09-02T08:59:26.873Z,1011.31
2022-09-02T09:00:26.776Z,1011.69
2022-09-02T09:01:26.759Z,1011.56
2022-09-02T09:02:26.737Z,1011.52
2022-09-02T09:03:26.663Z,1011.94
2022-09-02T09:04:26.637Z,1011.89
2022-09-02T09:05:26.601Z,1011.91
2022-09-02T09:06:26.594Z,1011.93
2022-09-02T09:07:26.568Z,1011.93
2022-09-02T09:08:26.590Z,1011.89
2022-09-02T09:09:26.473Z,1011.69
2022-09-02T09:10:26.446Z,1011.90
2022-09-02T09:11:26.410Z,1011.86
2022-09-02T09:12:26.392Z,1011.90
2022-09-02T09:13:26.356Z,1011.65
2022-09-02T09:14:26.321Z,1011.71
2022-09-02T09:15:26.285Z,1011.68
2022-09-02T09:16:26.293Z,1011.87
2022-09-02T09:17:28.033Z,1011.48
2022-09-02T09:18:26.196Z,1011.54
2022-09-02T09:19:26.162Z,1011.74
2022-09-02T09:20:26.157Z,1011.40
2022-09-02T09:22:26.084Z,1011.69
2022-09-02T09:23:26.355Z,1011.70
2022-09-02T09:24:26.009Z,1011.54
2022-09-02T09:25:25.978Z,1011.40
2022-09-02T09:26:25.947Z,1011.46
2022-09-02T09:27:25.933Z,1011.38
2022-09-02T09:28:25.886Z,1011.46
2022-09-02T09:29:25.857Z,1011.42
2022-09-02T09:30:25.860Z,1011.31
2022-09-02T09:31:25.819Z,1011.17
2022-09-02T09:32:25.764Z,1011.16
2022-09-02T09:33:25.747Z,1011.27
2022-09-02T09:34:25.705Z,1011.48
2022-09-02T09:35:25.670Z,1011.40
2022-09-02T09:36:25.643Z,1011.45
2022-09-02T09:37:25.613Z,1011.40
2022-09-02T09:38:25.586Z,1011.46
2022-09-02T09:39:25.597Z,1011.32
2022-09-02T09:40:25.558Z,1011.06
2022-09-02T09:41:25.492Z,1011.10
2022-09-02T09:42:25.462Z,1011.36
2022-09-02T09:43:25.545Z,1011.30
2022-09-02T09:44:25.402Z,1011.30
2022-09-02T09:45:25.421Z,1011.27
2022-09-02T09:46:25.344Z,1011.09
2022-09-02T09:47:25.311Z,1010.97
2022-09-02T09:48:25.283Z,1011.26
2022-09-02T09:49:25.253Z,1011.20
2022-09-02T09:50:25.231Z,1011.10
2022-09-02T09:51:25.189Z,1011.22
2022-09-02T09:52:25.163Z,1011.26
2022-09-02T09:53:25.128Z,1011.22
2022-09-02T09:54:25.105Z,1011.22
2022-09-02T09:55:25.583Z,1011.22
2022-09-02T09:56:25.056Z,1010.72
2022-09-02T09:57:25.021Z,1011.17
2022-09-02T09:58:24.986Z,1011.06
2022-09-02T09:59:24.950Z,1011.11
2022-09-02T10:00:24.925Z,1011.31
2022-09-02T10:01:25.014Z,1010.94
2022-09-02T10:02:24.988Z,1011.16
2022-09-02T10:03:24.913Z,1010.92
2022-09-02T10:04:41.690Z,1011.21
2022-09-02T10:05:24.766Z,1011.17
2022-09-02T10:06:24.753Z,1011.13
2022-09-02T10:07:24.708Z,1011.08
2022-09-02T10:08:24.691Z,1011.11
2022-09-02T10:09:24.651Z,1011.11
2022-09-02T10:10:24.618Z,1011.04
2022-09-02T10:11:24.583Z,1011.06
2022-09-02T10:12:24.556Z,1011.08
2022-09-02T10:13:24.523Z,1010.89
2022-09-02T10:14:26.537Z,1011.06
2022-09-02T10:15:24.460Z,1010.96
2022-09-02T10:16:24.941Z,1011.06
2022-09-02T10:17:24.400Z,1011.05
2022-09-02T10:18:24.438Z,1010.98
2022-09-02T10:19:24.351Z,1011.03
2022-09-02T10:20:24.311Z,1011.00
2022-09-02T10:21:24.333Z,1011.03
2022-09-02T10:22:24.251Z,1011.11
2022-09-02T10:23:24.216Z,1010.70
2022-09-02T10:24:24.190Z,1010.84
2022-09-02T10:25:25.126Z,1011.08
2022-09-02T10:27:24.092Z,1011.15
2022-09-02T10:28:24.242Z,1011.05
2022-09-02T10:29:24.033Z,1010.45
2022-09-02T10:30:24.000Z,1010.47
2022-09-02T10:31:24.012Z,1010.33
2022-09-02T10:32:24.683Z,1010.33
2022-09-02T10:33:24.295Z,1010.38
2022-09-02T10:34:23.877Z,1010.36
2022-09-02T10:35:23.845Z,1010.34
2022-09-02T10:36:25.494Z,1010.37
2022-09-02T10:37:24.760Z,1010.38
2022-09-02T10:38:23.868Z,1010.35
2022-09-02T10:39:24.015Z,1010.32
2022-09-02T10:40:25.355Z,1010.28
2022-09-02T10:41:23.848Z,1010.37
2022-09-02T10:42:23.884Z,1010.84
2022-09-02T10:43:23.769Z,1010.91
2022-09-02T10:44:23.690Z,1011.04
2022-09-02T10:45:26.100Z,1010.88
2022-09-02T10:46:24.205Z,1010.57
2022-09-02T10:47:30.057Z,1010.64
2022-09-02T10:48:24.623Z,1010.78
2022-09-02T10:49:23.530Z,1010.81
2022-09-02T10:50:23.396Z,1010.71
2022-09-02T10:51:23.567Z,1010.76
2022-09-02T10:52:23.311Z,1010.45
2022-09-02T10:53:23.649Z,1010.96
2022-09-02T10:54:23.671Z,1010.64
2022-09-02T10:55:23.232Z,1010.60
2022-09-02T10:56:23.206Z,1010.52
2022-09-02T10:57:23.189Z,1010.60
2022-09-02T10:58:23.580Z,1010.81
2022-09-02T10:59:23.083Z,1010.82
2022-09-02T11:00:24.239Z,1010.84
2022-09-02T11:01:23.257Z,1010.36
2022-09-02T11:02:23.181Z,1010.56
2022-09-02T11:03:23.540Z,1010.21
2022-09-02T11:04:25.382Z,1010.21
2022-09-02T11:05:22.920Z,1010.29
2022-09-02T11:06:23.068Z,1010.33
2022-09-02T11:07:22.839Z,1010.18
2022-09-02T11:08:22.990Z,1010.18
2022-09-02T11:09:23.004Z,1010.15
2022-09-02T11:10:22.755Z,1010.18
2022-09-02T11:11:22.867Z,1010.25
2022-09-02T11:12:22.680Z,1010.59
2022-09-02T11:13:23.740Z,1010.64
2022-09-02T11:14:22.658Z,1010.18
2022-09-02T11:15:22.597Z,1010.08
2022-09-02T11:16:22.979Z,1010.06
2022-09-02T11:17:22.552Z,1010.06
2022-09-02T11:18:22.491Z,1010.06
2022-09-02T11:19:22.525Z,1010.08
2022-09-02T11:20:22.443Z,1010.13
2022-09-02T11:21:22.492Z,1010.07
2022-09-02T11:22:25.523Z,1010.04
2022-09-02T11:23:22.534Z,1010.03
2022-09-02T11:24:22.299Z,1010.05
2022-09-02T11:25:22.478Z,1010.01
2022-09-02T11:26:22.339Z,1010.01
2022-09-02T11:27:32.435Z,1010.08
2022-09-02T11:28:22.876Z,1009.98
2022-09-02T11:29:22.586Z,1010.05
2022-09-02T11:30:22.410Z,1010.07
2022-09-02T11:31:22.539Z,1010.02
2022-09-02T11:32:22.776Z,1010.09
2022-09-02T11:33:22.105Z,1010.12
2022-09-02T11:34:22.109Z,1009.99
2022-09-02T11:35:22.082Z,1009.97
2022-09-02T11:36:21.984Z,1009.89
2022-09-02T11:37:21.891Z,1009.92
2022-09-02T11:38:22.503Z,1009.97
2022-09-02T11:39:35.977Z,1009.92
2022-09-02T11:40:34.226Z,1009.88
2022-09-02T11:41:37.914Z,1009.87
2022-09-02T11:42:21.986Z,1009.78
2022-09-02T11:43:22.246Z,1009.80
2022-09-02T11:44:21.715Z,1009.81
2022-09-02T11:45:22.662Z,1009.80
2022-09-02T11:46:22.225Z,1009.85
2022-09-02T11:47:21.776Z,1009.86
2022-09-02T11:48:21.662Z,1009.86
2022-09-02T11:49:27.836Z,1010.36
2022-09-02T11:50:22.398Z,1009.90
2022-09-02T11:51:23.069Z,1009.83
2022-09-02T11:53:21.628Z,1009.73
2022-09-02T11:54:21.809Z,1009.74
2022-09-02T11:55:21.544Z,1009.70
2022-09-02T11:56:21.411Z,1009.64
2022-09-02T11:57:21.316Z,1009.73
2022-09-02T11:58:21.271Z,1009.75
2022-09-02T11:59:21.262Z,1010.32
2022-09-02T12:00:22.166Z,1009.71
2022-09-02T12:01:25.775Z,1009.77
2022-09-02T12:02:21.219Z,1009.72
2022-09-02T12:03:40.323Z,1009.73
2022-09-02T12:05:21.308Z,1009.65
2022-09-02T12:06:22.897Z,1009.72
2022-09-02T12:07:26.407Z,1009.73
2022-09-02T12:08:22.928Z,1009.79
2022-09-02T12:09:22.522Z,1009.96